Flight Track Log - Related Links

Times and Time Zones

All times are in EDT time to prevent confusion due to time zone crossing. See the HAL297 flight status page for this flight to view local times or setup timezone preferences in your user account.

Time Position Orientation Groundspeed Altitude Reporting Facility
EDT Latitude Longitude Course Direction KTS MPH feet Rate Location/Type
Wed 10:36:15 PM 19.7535 -156.0638 166° South  Level FlightAware Approximate
Wed 10:37:10 PM 19.7000 -156.0500 255° West 210 242 1,500  Level Honolulu Center
Wed 10:38:10 PM 19.6833 -156.1167 317° Northwest 260 299 3,900 2,628 Climbing Honolulu Center
Wed 10:39:11 PM 19.7333 -156.1667 309° West 280 322 6,800 2,926 Climbing Honolulu Center
Wed 10:40:11 PM 19.7833 -156.2333 317° Northwest 300 345 9,800 2,380 Climbing Honolulu Center
Wed 10:41:12 PM 19.8500 -156.3000 310° West 340 391 11,600 1,835 Climbing Honolulu Center
Wed 10:42:12 PM 19.9167 -156.3833 312° West 380 437 13,500 1,800 Climbing Honolulu Center
Wed 10:43:12 PM 20.0000 -156.4833 317° Northwest 410 472 15,200 1,983 Climbing Honolulu Center
Wed 10:44:13 PM 20.0833 -156.5667 305° West 420 483 17,500 2,132 Climbing Honolulu Center
Wed 10:45:13 PM 20.1500 -156.6667 317° Northwest 420 483 19,500 1,250 Climbing Honolulu Center
Wed 10:46:13 PM 20.2333 -156.7500 317° Northwest 410 472 20,000 248 Climbing Honolulu Center
Wed 10:47:14 PM 20.3167 -156.8333 312° West 400 460 20,000  Level Honolulu Center
Wed 10:48:14 PM 20.4000 -156.9333 317° Northwest 410 472 20,000  Level Honolulu Center
Wed 10:49:15 PM 20.4667 -157.0000 311° West 380 437 20,000 -99 Level Honolulu Center
Wed 10:50:15 PM 20.5333 -157.0833 311° West 380 437 19,800 -1,000 Descending Honolulu Center
Wed 10:51:15 PM 20.6000 -157.1667 317° Northwest 380 437 18,000 -1,900 Descending Honolulu Center
Wed 10:52:15 PM 20.6833 -157.2500 311° West 370 426 16,000 -1,983 Descending Honolulu Center
Wed 10:53:16 PM 20.7500 -157.3333 311° West 370 426 14,000 -1,672 Descending Honolulu Center
Wed 10:54:17 PM 20.8167 -157.4167 303° West 340 391 12,600 -1,289 Descending Honolulu Center
Wed 10:55:17 PM 20.8667 -157.5000 293° West 320 368 11,400 -1,200 Descending Honolulu Center
Wed 10:56:17 PM 20.9000 -157.5833 309° West 300 345 10,200 -1,240 Descending Honolulu Center
Wed 10:57:18 PM 20.9500 -157.6500 298° West 290 334 8,900 -1,289 Descending Honolulu Center
Wed 10:58:18 PM 20.9833 -157.7167 303° West 300 345 7,600 -1,000 Descending Honolulu Center
Wed 10:59:18 PM 21.0333 -157.8000 306° West 260 299 6,900 -992 Descending Honolulu Center
Wed 11:00:19 PM 21.0667 -157.8500 298° West 240 276 5,600 -1,339 Descending Honolulu Center
Wed 11:01:19 PM 21.1000 -157.9167 317° Northwest 230 265 4,200 -1,250 Descending Honolulu Center
Wed 11:02:19 PM 21.1500 -157.9667 317° Northwest 240 276 3,100 -1,100 Descending Honolulu Center

Login

Don't have an account? Register now (free) for customized features, flight alerts, and more!